createdAt,value
2022-08-14T00:02:27.113Z,13.77
2022-08-14T00:04:55.908Z,13.40
2022-08-14T00:07:24.376Z,13.70
2022-08-14T00:10:01.717Z,16.05
2022-08-14T00:12:48.035Z,11.60
2022-08-14T00:15:25.340Z,11.30
2022-08-14T00:17:59.667Z,14.23
2022-08-14T00:20:41.411Z,10.73
2022-08-14T00:23:17.314Z,13.05
2022-08-14T00:26:05.528Z,11.07
2022-08-14T00:28:36.906Z,11.05
2022-08-14T00:31:08.144Z,10.07
2022-08-14T00:33:52.048Z,11.63
2022-08-14T00:36:39.519Z,11.70
2022-08-14T00:39:17.969Z,11.95
2022-08-14T00:41:47.481Z,13.52
2022-08-14T00:44:21.193Z,12.60
2022-08-14T00:46:58.862Z,14.13
2022-08-14T00:49:30.191Z,10.45
2022-08-14T00:51:59.911Z,11.48
2022-08-14T00:54:28.484Z,11.45
2022-08-14T00:56:56.873Z,11.93
2022-08-14T00:59:27.478Z,12.23
2022-08-14T01:01:59.843Z,10.55
2022-08-14T01:04:37.691Z,9.10
2022-08-14T01:07:21.920Z,10.93
2022-08-14T01:09:51.740Z,11.68
2022-08-14T01:12:26.979Z,11.93
2022-08-14T01:14:58.996Z,10.40
2022-08-14T01:17:50.797Z,11.52
2022-08-14T01:20:40.643Z,12.35
2022-08-14T01:23:16.709Z,10.10
2022-08-14T01:25:51.494Z,10.77
2022-08-14T01:28:46.383Z,11.45
2022-08-14T01:31:14.331Z,8.65
2022-08-14T01:35:16.407Z,9.38
2022-08-14T01:36:36.688Z,9.15
2022-08-14T01:39:12.689Z,9.35
2022-08-14T01:41:43.956Z,8.57
2022-08-14T01:44:33.135Z,9.65
2022-08-14T01:47:09.675Z,10.57
2022-08-14T01:49:46.112Z,8.23
2022-08-14T01:52:57.695Z,8.68
2022-08-14T01:55:21.768Z,8.10
2022-08-14T01:58:02.160Z,8.43
2022-08-14T02:00:39.865Z,7.75
2022-08-14T02:03:09.389Z,9.40
2022-08-14T02:05:39.016Z,9.10
2022-08-14T02:08:09.025Z,7.38
2022-08-14T02:10:46.203Z,8.20
2022-08-14T02:13:17.457Z,11.13
2022-08-14T02:15:48.759Z,8.98
2022-08-14T02:18:19.139Z,11.27
2022-08-14T02:20:48.980Z,9.15
2022-08-14T02:23:28.902Z,8.40
2022-08-14T02:26:18.378Z,8.80
2022-08-14T02:28:59.429Z,9.30
2022-08-14T02:31:42.160Z,7.70
2022-08-14T02:34:22.147Z,8.50
2022-08-14T02:37:04.922Z,8.23
2022-08-14T02:39:37.636Z,8.98
2022-08-14T02:42:13.102Z,7.55
2022-08-14T02:44:49.179Z,8.07
2022-08-14T02:47:20.910Z,7.20
2022-08-14T02:49:54.969Z,7.10
2022-08-14T02:52:56.370Z,9.10
2022-08-14T02:55:15.684Z,9.73
2022-08-14T02:57:58.287Z,8.85
2022-08-14T03:00:35.211Z,7.90
2022-08-14T03:03:07.905Z,10.40
2022-08-14T03:05:41.387Z,10.77
2022-08-14T03:08:15.417Z,8.73
2022-08-14T03:10:48.563Z,8.00
2022-08-14T03:13:21.095Z,9.70
2022-08-14T03:15:55.226Z,10.38
2022-08-14T03:18:31.583Z,8.77
2022-08-14T03:21:07.737Z,7.68
2022-08-14T03:23:38.673Z,8.52
2022-08-14T03:26:12.554Z,10.60
2022-08-14T03:28:51.242Z,8.43
2022-08-14T03:31:22.090Z,8.23
2022-08-14T03:33:55.996Z,10.80
2022-08-14T03:37:50.852Z,7.15
2022-08-14T03:39:24.257Z,9.27
2022-08-14T03:42:01.513Z,9.27
2022-08-14T03:45:20.037Z,7.22
2022-08-14T03:47:21.119Z,12.13
2022-08-14T03:49:50.432Z,11.05
2022-08-14T03:52:38.889Z,7.90
2022-08-14T03:55:12.134Z,9.35
2022-08-14T03:57:41.042Z,8.38
2022-08-14T04:00:42.808Z,9.00
2022-08-14T04:03:07.372Z,11.00
2022-08-14T04:05:43.506Z,9.25
2022-08-14T04:08:29.141Z,9.48
2022-08-14T04:11:01.643Z,9.30
2022-08-14T04:13:31.748Z,13.70
2022-08-14T04:16:10.314Z,7.63
2022-08-14T04:18:42.769Z,7.57
2022-08-14T04:21:13.357Z,8.48
2022-08-14T04:23:43.692Z,8.80
2022-08-14T04:26:14.575Z,7.40
2022-08-14T04:29:08.463Z,7.32
2022-08-14T04:32:59.211Z,7.38
2022-08-14T04:34:27.190Z,9.63
2022-08-14T04:37:17.458Z,6.88
2022-08-14T04:40:08.739Z,7.55
2022-08-14T04:42:54.757Z,8.80
2022-08-14T04:45:24.639Z,7.47
2022-08-14T04:48:12.725Z,8.68
2022-08-14T04:50:45.341Z,7.50
2022-08-14T04:53:19.066Z,9.98
2022-08-14T04:55:53.282Z,8.20
2022-08-14T04:58:32.890Z,8.82
2022-08-14T05:01:06.266Z,10.00
2022-08-14T05:03:43.838Z,8.75
2022-08-14T05:06:37.788Z,8.82
2022-08-14T05:09:01.949Z,8.35
2022-08-14T05:11:34.633Z,10.63
2022-08-14T05:14:16.257Z,8.95
2022-08-14T05:16:55.427Z,8.63
2022-08-14T05:19:29.254Z,8.80
2022-08-14T05:22:16.476Z,9.68
2022-08-14T05:24:51.166Z,8.80
2022-08-14T05:27:22.924Z,8.77
2022-08-14T05:29:55.135Z,7.80
2022-08-14T05:32:27.177Z,6.72
2022-08-14T05:34:59.459Z,18.08
2022-08-14T05:37:29.589Z,7.72
2022-08-14T05:39:59.263Z,7.55
2022-08-14T05:42:31.942Z,11.05
2022-08-14T05:45:04.201Z,7.30
2022-08-14T05:47:39.558Z,8.35
2022-08-14T05:50:17.571Z,9.35
2022-08-14T05:52:50.711Z,9.20
2022-08-14T05:55:22.249Z,7.55
2022-08-14T05:57:53.716Z,7.15
2022-08-14T06:00:34.823Z,7.15
2022-08-14T06:03:08.831Z,6.72
2022-08-14T06:05:39.543Z,9.45
2022-08-14T06:08:30.957Z,7.25
2022-08-14T06:11:06.628Z,10.82
2022-08-14T06:13:44.647Z,8.95
2022-08-14T06:16:17.857Z,11.48
2022-08-14T06:18:52.378Z,7.40
2022-08-14T06:21:23.330Z,7.90
2022-08-14T06:23:52.375Z,7.78
2022-08-14T06:26:22.195Z,11.43
2022-08-14T06:28:51.804Z,10.40
2022-08-14T06:31:22.717Z,9.30
2022-08-14T06:35:10.705Z,6.68
2022-08-14T06:36:41.384Z,6.93
2022-08-14T06:39:10.793Z,7.32
2022-08-14T06:41:58.076Z,7.07
2022-08-14T06:44:32.608Z,9.20
2022-08-14T06:47:03.145Z,7.05
2022-08-14T06:49:43.368Z,7.00
2022-08-14T06:52:16.511Z,7.07
2022-08-14T06:54:45.574Z,8.25
2022-08-14T06:57:14.244Z,8.63
2022-08-14T06:59:42.699Z,6.25
2022-08-14T07:02:43.578Z,11.35
2022-08-14T07:05:29.404Z,6.65
2022-08-14T07:07:59.577Z,7.78
2022-08-14T07:10:28.012Z,6.75
2022-08-14T07:13:03.666Z,8.88
2022-08-14T07:15:34.202Z,8.57
2022-08-14T07:18:09.285Z,6.00
2022-08-14T07:20:38.211Z,5.55
2022-08-14T07:23:19.732Z,6.40
2022-08-14T07:25:51.474Z,7.03
2022-08-14T07:28:24.492Z,7.25
2022-08-14T07:30:56.290Z,7.15
2022-08-14T07:33:30.094Z,5.55
2022-08-14T07:36:00.665Z,5.68
2022-08-14T07:38:36.178Z,5.97
2022-08-14T07:41:14.418Z,5.55
2022-08-14T07:43:44.012Z,7.60
2022-08-14T07:46:21.280Z,5.18
2022-08-14T07:48:58.014Z,6.03
2022-08-14T07:51:34.402Z,5.80
2022-08-14T07:54:11.147Z,6.45
2022-08-14T07:56:46.709Z,4.95
2022-08-14T07:59:18.257Z,6.18
2022-08-14T08:01:51.795Z,5.70
2022-08-14T08:04:27.055Z,5.13
2022-08-14T08:06:56.706Z,8.82
2022-08-14T08:09:32.118Z,6.57
2022-08-14T08:12:04.825Z,7.45
2022-08-14T08:14:55.332Z,5.68
2022-08-14T08:17:25.078Z,7.38
2022-08-14T08:19:53.464Z,6.72
2022-08-14T08:22:23.772Z,5.65
2022-08-14T08:24:57.938Z,8.02
2022-08-14T08:27:26.687Z,5.95
2022-08-14T08:30:10.270Z,8.07
2022-08-14T08:32:45.845Z,9.48
2022-08-14T08:35:21.145Z,5.30
2022-08-14T08:37:53.796Z,5.28
2022-08-14T08:40:35.794Z,4.95
2022-08-14T08:43:18.708Z,6.35
2022-08-14T08:45:55.398Z,7.47
2022-08-14T08:48:31.824Z,5.03
2022-08-14T08:51:05.891Z,4.53
2022-08-14T08:53:36.632Z,7.97
2022-08-14T08:56:06.585Z,6.28
2022-08-14T08:58:39.094Z,4.55
2022-08-14T09:01:07.516Z,5.05
2022-08-14T09:03:40.770Z,3.95
2022-08-14T09:07:00.408Z,5.40
2022-08-14T09:09:01.175Z,3.92
2022-08-14T09:11:31.378Z,4.10
2022-08-14T09:14:00.462Z,4.80
2022-08-14T09:16:28.744Z,5.13
2022-08-14T09:18:57.573Z,4.75
2022-08-14T09:21:31.763Z,8.07
2022-08-14T09:24:28.588Z,9.27
2022-08-14T09:26:50.751Z,4.35
2022-08-14T09:29:23.100Z,4.22
2022-08-14T09:31:57.517Z,4.18
2022-08-14T09:34:58.267Z,4.47
2022-08-14T09:37:40.122Z,4.55
2022-08-14T09:40:20.901Z,5.35
2022-08-14T09:43:07.779Z,5.10
2022-08-14T09:45:53.567Z,5.65
2022-08-14T09:48:30.597Z,6.53
2022-08-14T09:54:12.627Z,5.38
2022-08-14T09:56:32.957Z,6.57
2022-08-14T09:59:15.329Z,8.88
2022-08-14T10:01:46.141Z,4.95
2022-08-14T10:04:34.839Z,4.78
2022-08-14T10:07:06.188Z,6.53
2022-08-14T10:09:59.973Z,5.07
2022-08-14T10:12:50.186Z,6.53
2022-08-14T10:15:26.381Z,6.00
2022-08-14T10:18:08.108Z,6.20
2022-08-14T10:20:44.973Z,5.40
2022-08-14T10:23:18.313Z,5.00
2022-08-14T10:25:51.052Z,4.85
2022-08-14T10:29:03.806Z,6.18
2022-08-14T10:31:25.720Z,5.20
2022-08-14T10:34:04.672Z,6.68
2022-08-14T10:36:48.052Z,6.85
2022-08-14T10:39:26.257Z,5.70
2022-08-14T10:42:10.469Z,8.43
2022-08-14T10:44:52.515Z,5.65
2022-08-14T10:47:40.015Z,9.43
2022-08-14T10:50:12.108Z,7.07
2022-08-14T10:52:44.966Z,7.80
2022-08-14T10:55:16.288Z,9.25
2022-08-14T10:57:52.490Z,7.90
2022-08-14T11:00:29.964Z,11.27
2022-08-14T11:03:07.857Z,8.82
2022-08-14T11:05:42.072Z,9.85
2022-08-14T11:08:12.993Z,10.73
2022-08-14T11:10:45.189Z,9.25
2022-08-14T11:13:18.734Z,8.27
2022-08-14T11:15:48.923Z,10.07
2022-08-14T11:18:20.636Z,8.00
2022-08-14T11:21:01.960Z,7.40
2022-08-14T11:23:38.361Z,7.90
2022-08-14T11:26:10.368Z,9.10
2022-08-14T11:28:46.241Z,10.60
2022-08-14T11:31:16.699Z,11.32
2022-08-14T11:33:50.240Z,7.22
2022-08-14T11:36:19.012Z,7.70
2022-08-14T11:38:48.206Z,8.10
2022-08-14T11:41:17.580Z,7.68
2022-08-14T11:43:57.982Z,8.80
2022-08-14T11:46:30.528Z,12.10
2022-08-14T11:49:09.354Z,9.90
2022-08-14T11:51:53.128Z,7.57
2022-08-14T11:54:33.635Z,9.25
2022-08-14T11:57:04.420Z,8.15
2022-08-14T11:59:34.188Z,10.13
2022-08-14T12:03:00.440Z,10.80
2022-08-14T12:05:04.071Z,8.32
2022-08-14T12:07:33.330Z,8.25
2022-08-14T12:10:27.312Z,10.05
2022-08-14T12:12:56.339Z,7.78
2022-08-14T12:15:36.137Z,9.02
2022-08-14T12:18:05.176Z,9.68
2022-08-14T12:20:45.926Z,8.65
2022-08-14T12:23:23.348Z,9.25
2022-08-14T12:26:32.071Z,8.32
2022-08-14T12:29:00.476Z,11.52
2022-08-14T12:31:36.393Z,12.02
2022-08-14T12:34:14.903Z,11.68
2022-08-14T12:36:51.255Z,9.30
2022-08-14T12:39:21.273Z,12.57
2022-08-14T12:41:53.851Z,9.05
2022-08-14T12:44:31.251Z,9.73
2022-08-14T12:47:07.597Z,10.98
2022-08-14T12:49:36.176Z,9.85
2022-08-14T12:52:17.041Z,9.80
2022-08-14T12:54:50.535Z,9.50
2022-08-14T12:57:39.192Z,12.65
2022-08-14T13:00:22.709Z,12.93
2022-08-14T13:02:55.211Z,12.90
2022-08-14T13:05:27.696Z,9.85
2022-08-14T13:07:59.189Z,11.43
2022-08-14T13:10:51.250Z,9.63
2022-08-14T13:13:18.233Z,9.52
2022-08-14T13:15:47.963Z,12.20
2022-08-14T13:18:26.961Z,9.68
2022-08-14T13:20:59.642Z,11.93
2022-08-14T13:23:36.372Z,12.30
2022-08-14T13:26:06.351Z,11.35
2022-08-14T13:29:02.865Z,9.88
2022-08-14T13:31:30.808Z,9.35
2022-08-14T13:34:03.407Z,9.93
2022-08-14T13:36:54.940Z,10.23
2022-08-14T13:39:25.453Z,9.77
2022-08-14T13:41:55.960Z,9.32
2022-08-14T13:44:28.775Z,9.75
2022-08-14T13:46:58.241Z,9.05
2022-08-14T13:49:29.185Z,8.00
2022-08-14T13:51:59.802Z,8.52
2022-08-14T13:54:32.781Z,11.55
2022-08-14T13:57:03.635Z,8.85
2022-08-14T13:59:37.891Z,9.25
2022-08-14T14:02:08.575Z,7.68
2022-08-14T14:04:41.324Z,8.13
2022-08-14T14:07:13.069Z,8.85
2022-08-14T14:09:52.743Z,8.45
2022-08-14T14:12:38.281Z,7.80
2022-08-14T14:15:12.460Z,6.90
2022-08-14T14:17:43.964Z,8.50
2022-08-14T14:20:15.074Z,6.97
2022-08-14T14:23:09.613Z,9.10
2022-08-14T14:25:51.072Z,8.82
2022-08-14T14:28:31.888Z,7.40
2022-08-14T14:31:06.164Z,7.03
2022-08-14T14:33:52.040Z,7.32
2022-08-14T14:36:24.213Z,7.47
2022-08-14T14:38:54.758Z,7.50
2022-08-14T14:41:26.838Z,8.50
2022-08-14T14:44:09.064Z,6.88
2022-08-14T14:46:42.113Z,7.40
2022-08-14T14:49:14.665Z,9.20
2022-08-14T14:51:50.976Z,7.60
2022-08-14T14:54:30.037Z,7.80
2022-08-14T14:57:02.426Z,7.65
2022-08-14T14:59:33.605Z,8.38
2022-08-14T15:02:06.335Z,6.80
2022-08-14T15:04:38.315Z,6.32
2022-08-14T15:07:07.745Z,6.43
2022-08-14T15:09:35.998Z,6.93
2022-08-14T15:12:34.292Z,6.55
2022-08-14T15:14:58.107Z,6.05
2022-08-14T15:17:41.619Z,7.82
2022-08-14T15:20:17.516Z,7.40
2022-08-14T15:23:00.958Z,7.60
2022-08-14T15:25:37.074Z,7.10
2022-08-14T15:28:12.725Z,7.55
2022-08-14T15:30:43.219Z,7.22
2022-08-14T15:33:13.710Z,7.22
2022-08-14T15:35:45.057Z,6.32
2022-08-14T15:38:17.770Z,7.57
2022-08-14T15:40:51.742Z,7.05
2022-08-14T15:43:27.296Z,7.85
2022-08-14T15:45:59.596Z,6.43
2022-08-14T15:48:29.591Z,5.60
2022-08-14T15:50:58.404Z,6.85
2022-08-14T15:53:31.412Z,6.70
2022-08-14T15:56:00.387Z,6.28
2022-08-14T15:58:30.478Z,6.68
2022-08-14T16:01:31.220Z,7.18
2022-08-14T16:04:05.345Z,6.43
2022-08-14T16:06:35.647Z,6.43
2022-08-14T16:09:11.315Z,5.90
2022-08-14T16:11:47.452Z,7.20
2022-08-14T16:14:24.317Z,7.15
2022-08-14T16:17:00.368Z,6.38
2022-08-14T16:19:32.405Z,6.32
2022-08-14T16:22:58.206Z,7.90
2022-08-14T16:25:03.764Z,6.85
2022-08-14T16:27:41.026Z,11.23
2022-08-14T16:30:24.652Z,8.75
2022-08-14T16:32:59.179Z,9.90
2022-08-14T16:35:42.467Z,7.45
2022-08-14T16:38:35.714Z,7.10
2022-08-14T16:41:27.468Z,7.32
2022-08-14T16:43:59.549Z,8.32
2022-08-14T16:46:32.520Z,7.25
2022-08-14T16:49:01.622Z,9.45
2022-08-14T16:51:36.441Z,9.80
2022-08-14T16:54:20.564Z,8.82
2022-08-14T16:57:13.659Z,8.25
2022-08-14T16:59:51.831Z,7.00
2022-08-14T17:02:34.279Z,7.60
2022-08-14T17:05:17.674Z,7.68
2022-08-14T17:08:41.545Z,8.60
2022-08-14T17:11:10.186Z,7.53
2022-08-14T17:13:59.383Z,8.07
2022-08-14T17:16:35.616Z,8.15
2022-08-14T17:19:13.870Z,7.38
2022-08-14T17:21:47.574Z,10.40
2022-08-14T17:24:56.646Z,9.52
2022-08-14T17:27:08.578Z,9.35
2022-08-14T17:29:54.578Z,8.40
2022-08-14T17:32:30.091Z,9.82
2022-08-14T17:35:16.745Z,8.70
2022-08-14T17:37:56.074Z,8.15
2022-08-14T17:40:31.358Z,7.35
2022-08-14T17:43:02.346Z,10.57
2022-08-14T17:45:47.017Z,9.02
2022-08-14T17:49:14.260Z,10.70
2022-08-14T17:51:23.705Z,9.52
2022-08-14T17:54:02.617Z,10.10
2022-08-14T17:56:33.532Z,9.93
2022-08-14T17:59:05.097Z,8.85
2022-08-14T18:01:38.737Z,12.45
2022-08-14T18:04:24.900Z,10.38
2022-08-14T18:07:08.927Z,9.82
2022-08-14T18:09:56.231Z,9.23
2022-08-14T18:12:32.897Z,8.93
2022-08-14T18:15:16.669Z,10.18
2022-08-14T18:17:52.656Z,9.70
2022-08-14T18:21:41.218Z,9.55
2022-08-14T18:23:15.693Z,8.63
2022-08-14T18:25:50.346Z,10.10
2022-08-14T18:28:48.190Z,9.30
2022-08-14T18:31:44.030Z,8.93
2022-08-14T18:34:32.022Z,10.73
2022-08-14T18:37:16.802Z,10.48
2022-08-14T18:40:02.267Z,10.35
2022-08-14T18:42:46.009Z,9.07
2022-08-14T18:45:19.006Z,9.93
2022-08-14T18:48:15.920Z,9.90
2022-08-14T18:50:52.772Z,10.00
2022-08-14T18:53:24.424Z,11.32
2022-08-14T18:55:59.932Z,12.52
2022-08-14T18:58:48.629Z,14.05
2022-08-14T19:01:29.501Z,15.45
2022-08-14T19:03:59.701Z,22.25
2022-08-14T19:06:44.725Z,14.70
2022-08-14T19:09:58.035Z,12.13
2022-08-14T19:13:13.218Z,9.90
2022-08-14T19:16:04.400Z,12.52
2022-08-14T19:18:38.546Z,10.30
2022-08-14T19:21:13.574Z,10.30
2022-08-14T19:23:55.602Z,10.73
2022-08-14T19:26:35.578Z,12.43
2022-08-14T19:29:24.006Z,12.13
2022-08-14T19:31:56.051Z,10.52
2022-08-14T19:34:40.425Z,11.05
2022-08-14T19:37:47.471Z,11.88
2022-08-14T19:40:31.608Z,13.30
2022-08-14T19:43:06.418Z,10.60
2022-08-14T19:45:35.639Z,12.75
2022-08-14T19:48:12.443Z,11.68
2022-08-14T19:50:44.307Z,10.05
2022-08-14T19:53:17.087Z,12.52
2022-08-14T19:55:59.408Z,12.90
2022-08-14T19:58:55.010Z,11.10
2022-08-14T20:01:37.608Z,11.57
2022-08-14T20:04:45.351Z,13.45
2022-08-14T20:07:02.093Z,11.20
2022-08-14T20:11:12.701Z,10.90
2022-08-14T20:12:36.486Z,11.82
2022-08-14T20:15:21.275Z,12.45
2022-08-14T20:17:52.742Z,13.23
2022-08-14T20:20:31.804Z,15.10
2022-08-14T20:23:03.056Z,13.63
2022-08-14T20:25:45.276Z,12.32
2022-08-14T20:28:32.016Z,10.15
2022-08-14T20:31:17.671Z,13.18
2022-08-14T20:34:19.347Z,11.85
2022-08-14T20:37:10.094Z,10.23
2022-08-14T20:39:43.661Z,13.20
2022-08-14T20:42:33.041Z,14.13
2022-08-14T20:45:24.201Z,12.50
2022-08-14T20:48:01.122Z,11.20
2022-08-14T20:50:31.359Z,11.80
2022-08-14T20:53:06.117Z,11.48
2022-08-14T20:55:41.689Z,13.25
2022-08-14T20:58:42.244Z,13.27
2022-08-14T21:01:33.656Z,13.10
2022-08-14T21:04:20.910Z,11.15
2022-08-14T21:07:25.675Z,14.82
2022-08-14T21:10:05.285Z,12.90
2022-08-14T21:12:35.750Z,12.18
2022-08-14T21:15:10.104Z,14.80
2022-08-14T21:17:43.002Z,12.63
2022-08-14T21:20:26.265Z,14.57
2022-08-14T21:23:00.452Z,16.08
2022-08-14T21:25:31.894Z,13.73
2022-08-14T21:28:06.772Z,12.43
2022-08-14T21:30:46.969Z,12.35
2022-08-14T21:33:23.369Z,12.60
2022-08-14T21:35:54.778Z,13.55
2022-08-14T21:38:34.210Z,13.15
2022-08-14T21:41:42.601Z,12.18
2022-08-14T21:44:18.407Z,12.55
2022-08-14T21:46:53.603Z,11.20
2022-08-14T21:49:34.016Z,14.65
2022-08-14T21:52:51.047Z,11.43
2022-08-14T21:55:09.628Z,11.55
2022-08-14T21:57:56.535Z,12.98
2022-08-14T22:00:35.278Z,14.13
2022-08-14T22:03:09.198Z,17.42
2022-08-14T22:05:40.998Z,17.52
2022-08-14T22:08:13.880Z,16.83
2022-08-14T22:10:46.709Z,17.60
2022-08-14T22:13:16.818Z,15.30
2022-08-14T22:15:49.634Z,13.73
2022-08-14T22:18:21.033Z,16.80
2022-08-14T22:20:56.661Z,19.60
2022-08-14T22:23:26.320Z,16.67
2022-08-14T22:25:56.291Z,15.73
2022-08-14T22:28:33.148Z,15.95
2022-08-14T22:31:03.187Z,15.07
2022-08-14T22:33:32.418Z,15.85
2022-08-14T22:36:25.403Z,15.90
2022-08-14T22:38:54.351Z,18.83
2022-08-14T22:41:27.767Z,15.80
2022-08-14T22:44:03.120Z,15.43
2022-08-14T22:46:31.302Z,18.35
2022-08-14T22:48:59.706Z,17.17
2022-08-14T22:51:48.560Z,19.15
2022-08-14T22:54:52.138Z,19.35
2022-08-14T22:57:10.468Z,18.05
2022-08-14T22:59:39.716Z,18.10
2022-08-14T23:02:13.656Z,18.60
2022-08-14T23:04:54.236Z,19.05
2022-08-14T23:07:25.077Z,18.85
2022-08-14T23:09:55.825Z,18.60
2022-08-14T23:12:37.103Z,20.05
2022-08-14T23:15:07.502Z,18.27
2022-08-14T23:17:39.419Z,21.20
2022-08-14T23:20:19.185Z,18.13
2022-08-14T23:22:52.537Z,18.35
2022-08-14T23:25:57.290Z,20.83
2022-08-14T23:28:33.634Z,17.95
2022-08-14T23:31:08.345Z,18.58
2022-08-14T23:33:41.988Z,16.30
2022-08-14T23:36:31.840Z,16.85
2022-08-14T23:39:07.176Z,18.35
2022-08-14T23:41:46.255Z,18.95
2022-08-14T23:44:24.236Z,16.23
2022-08-14T23:46:56.927Z,17.77
2022-08-14T23:49:59.972Z,17.20
2022-08-14T23:52:50.150Z,22.45
2022-08-14T23:55:11.367Z,19.10
2022-08-14T23:57:44.274Z,16.23
